METAR Data
IDs: Format: Raw Decoded Include TAF

Data at: 1245 UTC 26 Feb 2021

EHDL 261225Z AUTO 33008KT 280V020 9999 BKN032 OVC037 09/02 Q1034 BLU